createdAt,value
2023-03-18T00:00:10.255Z,100124.47
2023-03-18T00:02:40.635Z,100118.89
2023-03-18T00:05:08.842Z,100119.88
2023-03-18T00:07:37.323Z,100125.80
2023-03-18T00:10:06.689Z,100130.77
2023-03-18T00:12:34.466Z,100131.89
2023-03-18T00:15:01.245Z,100129.60
2023-03-18T00:17:28.070Z,100132.10
2023-03-18T00:19:55.199Z,100131.45
2023-03-18T00:23:15.525Z,100127.11
2023-03-18T00:25:42.907Z,100127.85
2023-03-18T00:28:09.381Z,100123.96
2023-03-18T00:30:39.866Z,100121.35
2023-03-18T00:33:07.221Z,100123.84
2023-03-18T00:35:34.439Z,100125.40
2023-03-18T00:38:03.768Z,100126.95
2023-03-18T00:40:43.226Z,100131.26
2023-03-18T00:43:12.601Z,100129.52
2023-03-18T00:45:40.868Z,100133.86
2023-03-18T00:48:08.906Z,100137.09
2023-03-18T00:50:36.890Z,100140.09
2023-03-18T00:53:03.935Z,100143.96
2023-03-18T00:55:30.514Z,100144.52
2023-03-18T00:57:57.385Z,100146.69
2023-03-18T01:00:26.146Z,100149.75
2023-03-18T01:02:53.373Z,100149.66
2023-03-18T01:05:20.177Z,100156.86
2023-03-18T01:07:47.351Z,100158.34
2023-03-18T01:10:15.992Z,100165.58
2023-03-18T01:12:46.574Z,100160.42
2023-03-18T01:15:17.827Z,100159.84
2023-03-18T01:17:45.747Z,100158.73
2023-03-18T01:20:16.998Z,100160.08
2023-03-18T01:22:44.897Z,100159.26
2023-03-18T01:25:13.137Z,100154.96
2023-03-18T01:27:40.754Z,100153.04
2023-03-18T01:30:09.172Z,100148.24
2023-03-18T01:32:36.565Z,100147.13
2023-03-18T01:35:03.769Z,100139.63
2023-03-18T01:37:31.400Z,100144.15
2023-03-18T01:39:58.390Z,100149.71
2023-03-18T01:42:24.821Z,100155.74
2023-03-18T01:45:18.169Z,100154.36
2023-03-18T01:47:46.539Z,100154.20
2023-03-18T01:50:15.580Z,100149.80
2023-03-18T01:52:44.010Z,100149.31
2023-03-18T01:55:19.250Z,100152.52
2023-03-18T01:57:48.576Z,100152.88
2023-03-18T02:00:17.112Z,100153.23
2023-03-18T02:02:45.880Z,100151.08
2023-03-18T02:05:16.468Z,100147.60
2023-03-18T02:07:44.267Z,100147.63
2023-03-18T02:10:24.545Z,100149.99
2023-03-18T02:12:56.830Z,100148.80
2023-03-18T02:15:25.467Z,100151.45
2023-03-18T02:17:57.829Z,100146.98
2023-03-18T02:20:24.650Z,100157.35
2023-03-18T02:22:57.562Z,100157.02
2023-03-18T02:25:41.585Z,100159.65
2023-03-18T02:28:12.453Z,100155.55
2023-03-18T02:30:47.583Z,100153.38
2023-03-18T02:33:17.225Z,100158.81
2023-03-18T02:35:47.571Z,100159.65
2023-03-18T02:38:14.395Z,100162.02
2023-03-18T02:40:42.429Z,100160.29
2023-03-18T02:43:22.002Z,100164.70
2023-03-18T02:45:58.071Z,100166.11
2023-03-18T02:48:30.636Z,100173.95
2023-03-18T02:50:57.589Z,100176.72
2023-03-18T02:53:24.016Z,100177.34
2023-03-18T02:55:50.906Z,100174.38
2023-03-18T02:58:17.571Z,100176.13
2023-03-18T03:00:44.030Z,100178.29
2023-03-18T03:03:10.836Z,100179.11
2023-03-18T03:05:38.225Z,100181.85
2023-03-18T03:08:05.292Z,100180.95
2023-03-18T03:10:34.664Z,100179.69
2023-03-18T03:13:01.720Z,100190.19
2023-03-18T03:15:28.683Z,100196.09
2023-03-18T03:17:55.495Z,100194.27
2023-03-18T03:20:22.242Z,100195.77
2023-03-18T03:22:48.891Z,100199.70
2023-03-18T03:25:15.540Z,100203.73
2023-03-18T03:27:43.588Z,100211.47
2023-03-18T03:30:13.677Z,100214.85
2023-03-18T03:32:41.244Z,100211.71
2023-03-18T03:35:08.600Z,100213.77
2023-03-18T03:37:35.918Z,100218.03
2023-03-18T03:40:05.321Z,100217.02
2023-03-18T03:42:32.078Z,100213.10
2023-03-18T03:44:58.843Z,100212.73
2023-03-18T03:47:25.876Z,100212.25
2023-03-18T03:49:52.537Z,100207.95
2023-03-18T03:52:19.943Z,100208.33
2023-03-18T03:54:46.516Z,100211.63
2023-03-18T03:57:13.701Z,100212.45
2023-03-18T03:59:40.350Z,100218.37
2023-03-18T04:02:06.950Z,100219.23
2023-03-18T04:04:33.459Z,100214.88
2023-03-18T04:07:02.379Z,100211.55
2023-03-18T04:09:29.246Z,100212.44
2023-03-18T04:11:56.299Z,100218.61
2023-03-18T04:14:22.812Z,100224.83
2023-03-18T04:16:49.466Z,100229.64
2023-03-18T04:19:16.788Z,100224.09
2023-03-18T04:21:44.021Z,100220.70
2023-03-18T04:24:10.905Z,100213.75
2023-03-18T04:26:37.598Z,100213.27
2023-03-18T04:29:04.806Z,100215.23
2023-03-18T04:31:32.151Z,100212.86
2023-03-18T04:33:59.963Z,100216.52
2023-03-18T04:36:28.351Z,100218.88
2023-03-18T04:38:55.331Z,100218.84
2023-03-18T04:41:22.157Z,100222.39
2023-03-18T04:43:49.649Z,100219.61
2023-03-18T04:46:16.735Z,100224.54
2023-03-18T04:48:43.911Z,100228.30
2023-03-18T04:51:12.586Z,100234.95
2023-03-18T04:53:39.424Z,100233.64
2023-03-18T04:56:07.167Z,100233.77
2023-03-18T04:58:36.763Z,100233.30
2023-03-18T05:01:04.881Z,100231.52
2023-03-18T05:03:31.452Z,100230.05
2023-03-18T05:05:58.130Z,100227.68
2023-03-18T05:08:24.691Z,100222.04
2023-03-18T05:10:51.151Z,100227.73
2023-03-18T05:13:18.549Z,100225.46
2023-03-18T05:15:46.115Z,100229.14
2023-03-18T05:18:12.868Z,100226.02
2023-03-18T05:20:39.671Z,100222.47
2023-03-18T05:23:06.311Z,100221.45
2023-03-18T05:25:33.399Z,100221.04
2023-03-18T05:28:00.845Z,100223.67
2023-03-18T05:30:27.734Z,100226.86
2023-03-18T05:32:55.009Z,100228.79
2023-03-18T05:35:22.066Z,100231.14
2023-03-18T05:37:48.832Z,100232.77
2023-03-18T05:40:16.421Z,100233.20
2023-03-18T05:42:55.373Z,100240.11
2023-03-18T05:45:22.887Z,100235.89
2023-03-18T05:47:49.671Z,100243.75
2023-03-18T05:50:31.403Z,100245.46
2023-03-18T05:52:57.986Z,100244.95
2023-03-18T05:55:24.713Z,100243.55
2023-03-18T05:57:57.603Z,100246.77
2023-03-18T06:00:25.170Z,100250.67
2023-03-18T06:02:54.537Z,100250.91
2023-03-18T06:05:22.616Z,100248.09
2023-03-18T06:07:49.343Z,100250.44
2023-03-18T06:10:17.041Z,100249.16
2023-03-18T06:12:44.584Z,100253.54
2023-03-18T06:15:13.860Z,100256.17
2023-03-18T06:17:40.695Z,100257.80
2023-03-18T06:20:09.339Z,100258.86
2023-03-18T06:22:36.944Z,100259.78
2023-03-18T06:25:04.715Z,100260.70
2023-03-18T06:27:31.419Z,100257.97
2023-03-18T06:30:02.626Z,100257.71
2023-03-18T06:32:30.197Z,100253.63
2023-03-18T06:34:56.929Z,100256.79
2023-03-18T06:37:23.764Z,100252.39
2023-03-18T06:39:50.682Z,100256.92
2023-03-18T06:42:17.457Z,100258.21
2023-03-18T06:44:50.418Z,100263.41
2023-03-18T06:47:24.553Z,100265.13
2023-03-18T06:49:51.474Z,100277.02
2023-03-18T06:52:19.247Z,100281.92
2023-03-18T06:54:46.390Z,100285.63
2023-03-18T06:57:13.466Z,100287.91
2023-03-18T06:59:40.762Z,100292.68
2023-03-18T07:02:08.883Z,100293.88
2023-03-18T07:04:35.860Z,100300.27
2023-03-18T07:07:02.585Z,100302.62
2023-03-18T07:09:29.621Z,100307.63
2023-03-18T07:11:57.236Z,100305.67
2023-03-18T07:14:24.440Z,100305.27
2023-03-18T07:16:51.101Z,100304.41
2023-03-18T07:19:18.676Z,100305.09
2023-03-18T07:21:46.363Z,100308.89
2023-03-18T07:24:14.466Z,100308.31
2023-03-18T07:26:41.489Z,100316.48
2023-03-18T07:29:08.475Z,100323.59
2023-03-18T07:31:35.484Z,100329.14
2023-03-18T07:34:02.504Z,100331.92
2023-03-18T07:36:29.584Z,100333.63
2023-03-18T07:38:56.773Z,100336.93
2023-03-18T07:41:23.815Z,100343.88
2023-03-18T07:43:50.631Z,100347.68
2023-03-18T07:46:17.598Z,100346.83
2023-03-18T07:48:44.369Z,100348.12
2023-03-18T07:51:11.835Z,100349.02
2023-03-18T07:53:38.689Z,100351.49
2023-03-18T07:56:05.631Z,100356.88
2023-03-18T07:58:32.629Z,100352.79
2023-03-18T08:00:59.953Z,100356.27
2023-03-18T08:03:28.076Z,100359.14
2023-03-18T08:05:55.997Z,100358.15
2023-03-18T08:08:23.236Z,100361.13
2023-03-18T08:10:51.074Z,100361.09
2023-03-18T08:13:18.056Z,100365.71
2023-03-18T08:15:44.774Z,100363.60
2023-03-18T08:18:11.432Z,100365.44
2023-03-18T08:20:38.532Z,100370.32
2023-03-18T08:23:05.319Z,100378.06
2023-03-18T08:25:32.659Z,100374.82
2023-03-18T08:27:59.631Z,100376.46
2023-03-18T08:30:28.873Z,100382.44
2023-03-18T08:32:56.175Z,100382.02
2023-03-18T08:35:23.396Z,100383.80
2023-03-18T08:37:51.608Z,100386.20
2023-03-18T08:40:20.310Z,100383.73
2023-03-18T08:42:47.175Z,100384.52
2023-03-18T08:45:14.306Z,100387.80
2023-03-18T08:47:41.715Z,100388.58
2023-03-18T08:50:09.329Z,100394.23
2023-03-18T08:52:38.600Z,100397.81
2023-03-18T08:55:07.357Z,100398.46
2023-03-18T08:57:34.495Z,100401.48
2023-03-18T09:00:01.335Z,100402.75
2023-03-18T09:02:28.399Z,100402.27
2023-03-18T09:04:57.012Z,100394.58
2023-03-18T09:07:23.676Z,100397.14
2023-03-18T09:09:50.601Z,100397.44
2023-03-18T09:12:17.960Z,100403.23
2023-03-18T09:14:44.788Z,100396.06
2023-03-18T09:17:11.733Z,100393.58
2023-03-18T09:19:38.524Z,100400.80
2023-03-18T09:22:12.498Z,100397.15
2023-03-18T09:24:39.540Z,100398.48
2023-03-18T09:27:06.413Z,100399.95
2023-03-18T09:29:32.950Z,100393.23
2023-03-18T09:32:00.570Z,100389.91
2023-03-18T09:34:27.450Z,100392.71
2023-03-18T09:36:54.658Z,100406.88
2023-03-18T09:39:21.960Z,100403.92
2023-03-18T09:42:08.894Z,100408.68
2023-03-18T09:44:36.907Z,100406.64
2023-03-18T09:47:30.493Z,100409.98
2023-03-18T09:49:59.890Z,100414.05
2023-03-18T09:52:43.096Z,100417.40
2023-03-18T09:55:19.393Z,100418.64
2023-03-18T09:57:48.231Z,100418.29
2023-03-18T10:00:27.819Z,100421.48
2023-03-18T10:03:06.439Z,100419.27
2023-03-18T10:05:51.999Z,100424.98
2023-03-18T10:08:43.266Z,100426.67
2023-03-18T10:11:23.463Z,100425.43
2023-03-18T10:14:01.077Z,100426.54
2023-03-18T10:16:32.311Z,100430.45
2023-03-18T10:19:00.286Z,100437.29
2023-03-18T10:21:54.670Z,100434.27
2023-03-18T10:24:59.628Z,100433.92
2023-03-18T10:27:50.817Z,100435.02
2023-03-18T10:30:28.748Z,100435.23
2023-03-18T10:33:12.550Z,100435.91
2023-03-18T10:36:05.122Z,100441.19
2023-03-18T10:38:38.373Z,100438.27
2023-03-18T10:41:23.364Z,100442.64
2023-03-18T10:43:53.339Z,100440.71
2023-03-18T10:46:22.324Z,100441.19
2023-03-18T10:48:55.911Z,100441.16
2023-03-18T10:51:31.638Z,100442.30
2023-03-18T10:54:08.496Z,100440.52
2023-03-18T10:56:36.158Z,100440.88
2023-03-18T10:59:15.355Z,100441.64
2023-03-18T11:01:45.673Z,100443.81
2023-03-18T11:04:19.085Z,100439.20
2023-03-18T11:06:53.248Z,100436.80
2023-03-18T11:09:22.463Z,100437.22
2023-03-18T11:11:57.770Z,100435.67
2023-03-18T11:14:30.313Z,100437.98
2023-03-18T11:17:19.597Z,100433.69
2023-03-18T11:19:48.907Z,100440.01
2023-03-18T11:22:21.041Z,100444.30
2023-03-18T11:25:02.149Z,100445.30
2023-03-18T11:27:35.529Z,100443.58
2023-03-18T11:30:11.170Z,100447.58
2023-03-18T11:32:54.622Z,100445.65
2023-03-18T11:35:32.435Z,100442.64
2023-03-18T11:38:04.358Z,100442.39
2023-03-18T11:40:32.374Z,100442.14
2023-03-18T11:43:01.765Z,100443.65
2023-03-18T11:45:50.611Z,100442.46
2023-03-18T11:48:28.937Z,100452.81
2023-03-18T11:51:35.059Z,100449.70
2023-03-18T11:54:14.870Z,100447.55
2023-03-18T11:56:56.250Z,100448.84
2023-03-18T11:59:27.782Z,100451.87
2023-03-18T12:02:21.416Z,100449.40
2023-03-18T12:05:01.221Z,100444.38
2023-03-18T12:07:38.512Z,100446.52
2023-03-18T12:10:24.283Z,100444.21
2023-03-18T12:13:14.089Z,100445.13
2023-03-18T12:16:00.759Z,100447.63
2023-03-18T12:18:45.756Z,100449.39
2023-03-18T12:21:30.584Z,100451.64
2023-03-18T12:24:31.234Z,100451.13
2023-03-18T12:27:14.036Z,100446.01
2023-03-18T12:30:09.847Z,100442.06
2023-03-18T12:32:46.109Z,100446.33
2023-03-18T12:35:32.474Z,100444.18
2023-03-18T12:38:14.786Z,100445.73
2023-03-18T12:41:29.780Z,100445.45
2023-03-18T12:44:06.797Z,100440.23
2023-03-18T12:46:48.781Z,100447.44
2023-03-18T12:49:28.620Z,100444.48
2023-03-18T12:52:06.297Z,100440.88
2023-03-18T12:54:40.388Z,100442.46
2023-03-18T12:57:22.450Z,100434.07
2023-03-18T12:59:57.143Z,100435.48
2023-03-18T13:02:49.252Z,100434.98
2023-03-18T13:05:34.720Z,100429.42
2023-03-18T13:08:41.831Z,100432.04
2023-03-18T13:11:30.355Z,100430.83
2023-03-18T13:14:04.200Z,100431.82
2023-03-18T13:16:34.688Z,100426.67
2023-03-18T13:19:04.616Z,100434.15
2023-03-18T13:21:34.280Z,100433.91
2023-03-18T13:24:17.141Z,100434.08
2023-03-18T13:27:05.884Z,100431.00
2023-03-18T13:29:44.971Z,100434.73
2023-03-18T13:32:36.696Z,100431.96
2023-03-18T13:35:44.945Z,100433.80
2023-03-18T13:38:32.939Z,100434.49
2023-03-18T13:41:25.545Z,100431.45
2023-03-18T13:43:53.544Z,100430.52
2023-03-18T13:46:24.726Z,100431.56
2023-03-18T13:49:00.055Z,100437.55
2023-03-18T13:51:29.480Z,100438.45
2023-03-18T13:54:00.730Z,100438.52
2023-03-18T13:56:52.872Z,100436.71
2023-03-18T13:59:34.643Z,100430.90
2023-03-18T14:02:30.369Z,100437.91
2023-03-18T14:04:59.593Z,100436.77
2023-03-18T14:07:28.488Z,100434.55
2023-03-18T14:10:17.335Z,100429.45
2023-03-18T14:12:50.165Z,100433.66
2023-03-18T14:15:37.269Z,100426.13
2023-03-18T14:18:17.499Z,100430.41
2023-03-18T14:20:44.255Z,100420.18
2023-03-18T14:23:25.889Z,100420.66
2023-03-18T14:26:26.596Z,100425.18
2023-03-18T14:29:05.447Z,100419.98
2023-03-18T14:31:58.954Z,100413.95
2023-03-18T14:34:28.511Z,100414.02
2023-03-18T14:36:58.334Z,100414.04
2023-03-18T14:39:38.113Z,100410.98
2023-03-18T14:42:23.267Z,100412.29
2023-03-18T14:44:53.952Z,100409.21
2023-03-18T14:47:38.257Z,100415.83
2023-03-18T14:50:32.858Z,100414.80
2023-03-18T14:53:15.498Z,100420.34
2023-03-18T14:55:43.785Z,100415.42
2023-03-18T14:58:16.760Z,100413.84
2023-03-18T15:00:45.469Z,100410.60
2023-03-18T15:03:32.456Z,100411.92
2023-03-18T15:06:01.566Z,100411.48
2023-03-18T15:08:46.329Z,100407.17
2023-03-18T15:11:14.746Z,100412.59
2023-03-18T15:13:42.603Z,100411.84
2023-03-18T15:16:13.630Z,100418.29
2023-03-18T15:18:40.745Z,100416.66
2023-03-18T15:21:16.544Z,100411.11
2023-03-18T15:24:04.238Z,100415.10
2023-03-18T15:26:37.810Z,100416.90
2023-03-18T15:29:37.004Z,100415.30
2023-03-18T15:32:23.294Z,100410.94
2023-03-18T15:35:06.447Z,100408.20
2023-03-18T15:37:42.608Z,100408.76
2023-03-18T15:40:25.928Z,100411.52
2023-03-18T15:42:58.096Z,100413.86
2023-03-18T15:45:29.134Z,100414.20
2023-03-18T15:47:58.292Z,100414.39
2023-03-18T15:50:28.610Z,100414.77
2023-03-18T15:53:03.410Z,100413.29
2023-03-18T15:55:35.336Z,100412.84
2023-03-18T15:58:05.929Z,100414.31
2023-03-18T16:00:34.805Z,100412.37
2023-03-18T16:03:01.717Z,100410.21
2023-03-18T16:05:29.074Z,100417.45
2023-03-18T16:07:56.908Z,100412.74
2023-03-18T16:10:26.269Z,100414.79
2023-03-18T16:12:55.482Z,100411.45
2023-03-18T16:15:29.677Z,100410.92
2023-03-18T16:17:57.832Z,100407.52
2023-03-18T16:20:29.021Z,100408.54
2023-03-18T16:22:56.767Z,100407.21
2023-03-18T16:25:24.885Z,100412.16
2023-03-18T16:27:55.866Z,100412.51
2023-03-18T16:30:25.989Z,100412.55
2023-03-18T16:32:54.067Z,100416.54
2023-03-18T16:35:24.746Z,100417.70
2023-03-18T16:37:53.066Z,100414.83
2023-03-18T16:40:25.125Z,100413.63
2023-03-18T16:42:53.076Z,100417.40
2023-03-18T16:45:23.886Z,100418.66
2023-03-18T16:47:51.924Z,100417.23
2023-03-18T16:50:22.329Z,100418.98
2023-03-18T16:52:50.331Z,100417.78
2023-03-18T16:55:19.276Z,100419.63
2023-03-18T16:58:01.745Z,100424.17
2023-03-18T17:00:31.958Z,100423.81
2023-03-18T17:03:00.375Z,100426.89
2023-03-18T17:05:28.390Z,100427.69
2023-03-18T17:07:55.282Z,100431.70
2023-03-18T17:10:24.497Z,100435.73
2023-03-18T17:13:05.916Z,100437.89
2023-03-18T17:15:36.925Z,100437.37
2023-03-18T17:18:11.949Z,100443.42
2023-03-18T17:20:39.101Z,100439.63
2023-03-18T17:23:06.016Z,100439.32
2023-03-18T17:25:33.789Z,100437.17
2023-03-18T17:28:06.930Z,100434.10
2023-03-18T17:30:35.876Z,100439.80
2023-03-18T17:33:04.375Z,100439.86
2023-03-18T17:35:31.460Z,100444.19
2023-03-18T17:37:59.142Z,100442.20
2023-03-18T17:40:29.040Z,100437.98
2023-03-18T17:42:56.393Z,100450.17
2023-03-18T17:45:32.785Z,100451.11
2023-03-18T17:48:15.604Z,100460.86
2023-03-18T17:50:44.201Z,100459.33
2023-03-18T17:53:24.714Z,100460.94
2023-03-18T17:55:52.146Z,100458.47
2023-03-18T17:58:20.554Z,100460.71
2023-03-18T18:00:48.042Z,100460.20
2023-03-18T18:03:27.217Z,100458.80
2023-03-18T18:05:56.022Z,100460.92
2023-03-18T18:08:25.370Z,100462.85
2023-03-18T18:11:01.498Z,100462.19
2023-03-18T18:13:28.681Z,100458.02
2023-03-18T18:15:55.206Z,100463.69
2023-03-18T18:18:27.417Z,100461.75
2023-03-18T18:21:01.750Z,100463.66
2023-03-18T18:23:32.604Z,100463.27
2023-03-18T18:26:08.339Z,100463.73
2023-03-18T18:28:40.061Z,100463.66
2023-03-18T18:31:09.758Z,100462.83
2023-03-18T18:33:37.947Z,100465.73
2023-03-18T18:36:05.852Z,100468.25
2023-03-18T18:38:32.988Z,100465.89
2023-03-18T18:41:00.313Z,100466.80
2023-03-18T18:43:28.224Z,100471.43
2023-03-18T18:45:57.482Z,100475.48
2023-03-18T18:48:32.332Z,100474.11
2023-03-18T18:51:00.449Z,100476.86
2023-03-18T18:53:29.981Z,100474.92
2023-03-18T18:55:59.223Z,100475.88
2023-03-18T18:58:31.382Z,100475.02
2023-03-18T19:00:58.435Z,100471.88
2023-03-18T19:03:30.268Z,100471.36
2023-03-18T19:05:58.033Z,100469.17
2023-03-18T19:08:27.529Z,100473.18
2023-03-18T19:10:59.113Z,100475.32
2023-03-18T19:13:29.402Z,100477.70
2023-03-18T19:15:58.759Z,100480.96
2023-03-18T19:18:32.233Z,100478.35
2023-03-18T19:20:58.913Z,100481.88
2023-03-18T19:23:28.043Z,100477.02
2023-03-18T19:25:56.252Z,100475.42
2023-03-18T19:28:47.797Z,100475.00
2023-03-18T19:31:24.416Z,100474.73
2023-03-18T19:33:52.639Z,100469.19
2023-03-18T19:36:22.090Z,100470.38
2023-03-18T19:38:49.595Z,100473.77
2023-03-18T19:41:16.121Z,100471.77
2023-03-18T19:43:42.750Z,100471.22
2023-03-18T19:46:23.651Z,100471.94
2023-03-18T19:48:50.670Z,100473.62
2023-03-18T19:51:17.150Z,100471.44
2023-03-18T19:53:46.270Z,100477.52
2023-03-18T19:56:25.152Z,100475.38
2023-03-18T19:58:57.619Z,100482.40
2023-03-18T20:01:25.893Z,100484.79
2023-03-18T20:03:57.315Z,100490.63
2023-03-18T20:06:24.662Z,100495.78
2023-03-18T20:08:51.712Z,100495.91
2023-03-18T20:11:21.040Z,100499.96
2023-03-18T20:13:48.616Z,100506.30
2023-03-18T20:16:17.792Z,100508.03
2023-03-18T20:18:44.704Z,100509.08
2023-03-18T20:21:27.573Z,100512.02
2023-03-18T20:24:01.606Z,100512.05
2023-03-18T20:26:28.433Z,100539.73
2023-03-18T20:28:56.037Z,100539.17
2023-03-18T20:31:22.734Z,100540.48
2023-03-18T20:33:49.240Z,100536.48
2023-03-18T20:36:18.054Z,100541.09
2023-03-18T20:38:48.198Z,100543.88
2023-03-18T20:41:19.918Z,100543.71
2023-03-18T20:43:50.097Z,100541.11
2023-03-18T20:46:17.360Z,100544.39
2023-03-18T20:48:44.854Z,100546.91
2023-03-18T20:51:26.286Z,100541.65
2023-03-18T20:53:53.810Z,100542.55
2023-03-18T20:56:22.801Z,100551.05
2023-03-18T20:58:50.451Z,100552.81
2023-03-18T21:01:18.385Z,100548.32
2023-03-18T21:03:45.525Z,100553.52
2023-03-18T21:06:14.876Z,100556.35
2023-03-18T21:08:41.609Z,100554.50
2023-03-18T21:11:30.385Z,100551.73
2023-03-18T21:13:57.146Z,100549.23
2023-03-18T21:16:24.214Z,100546.89
2023-03-18T21:18:50.734Z,100540.40
2023-03-18T21:21:29.205Z,100548.70
2023-03-18T21:23:55.767Z,100543.54
2023-03-18T21:26:23.664Z,100539.86
2023-03-18T21:28:50.787Z,100533.23
2023-03-18T21:31:23.913Z,100526.98
2023-03-18T21:33:51.599Z,100515.77
2023-03-18T21:36:18.238Z,100516.67
2023-03-18T21:38:44.750Z,100522.33
2023-03-18T21:41:19.377Z,100522.52
2023-03-18T21:43:46.736Z,100527.75
2023-03-18T21:46:17.605Z,100525.02
2023-03-18T21:48:44.714Z,100529.35
2023-03-18T21:51:38.186Z,100530.73
2023-03-18T21:54:06.381Z,100532.41
2023-03-18T21:56:32.961Z,100534.59
2023-03-18T21:58:59.465Z,100536.23
2023-03-18T22:01:32.216Z,100532.59
2023-03-18T22:03:59.110Z,100531.27
2023-03-18T22:06:25.730Z,100526.94
2023-03-18T22:08:52.261Z,100526.35
2023-03-18T22:11:21.890Z,100524.94
2023-03-18T22:13:49.781Z,100529.84
2023-03-18T22:16:18.006Z,100533.04
2023-03-18T22:18:46.445Z,100534.74
2023-03-18T22:21:31.288Z,100539.02
2023-03-18T22:23:59.879Z,100536.30
2023-03-18T22:26:26.403Z,100538.64
2023-03-18T22:28:52.829Z,100535.83
2023-03-18T22:31:23.048Z,100535.44
2023-03-18T22:33:50.040Z,100534.29
2023-03-18T22:36:18.222Z,100531.27
2023-03-18T22:38:45.939Z,100534.81
2023-03-18T22:41:29.527Z,100537.59
2023-03-18T22:43:57.839Z,100537.77
2023-03-18T22:46:24.509Z,100538.58
2023-03-18T22:48:51.048Z,100539.02
2023-03-18T22:51:26.198Z,100541.35
2023-03-18T22:53:53.980Z,100534.52
2023-03-18T22:56:21.673Z,100535.54
2023-03-18T22:58:48.305Z,100536.86
2023-03-18T23:01:20.739Z,100537.48
2023-03-18T23:03:47.506Z,100536.10
2023-03-18T23:06:17.554Z,100534.82
2023-03-18T23:08:45.676Z,100530.00
2023-03-18T23:11:13.569Z,100526.86
2023-03-18T23:13:43.075Z,100528.44
2023-03-18T23:16:16.446Z,100528.98
2023-03-18T23:18:42.993Z,100518.76
2023-03-18T23:21:21.678Z,100517.63
2023-03-18T23:23:48.715Z,100514.64
2023-03-18T23:26:16.224Z,100513.08
2023-03-18T23:28:45.245Z,100513.39
2023-03-18T23:31:13.551Z,100517.45
2023-03-18T23:33:40.207Z,100516.86
2023-03-18T23:36:07.541Z,100514.50
2023-03-18T23:38:34.247Z,100512.86
2023-03-18T23:41:00.885Z,100515.61
2023-03-18T23:43:27.439Z,100511.15
2023-03-18T23:45:53.990Z,100512.07
2023-03-18T23:48:20.717Z,100519.48
2023-03-18T23:50:47.480Z,100512.91
2023-03-18T23:53:13.905Z,100513.80
2023-03-18T23:55:40.349Z,100510.78
2023-03-18T23:58:06.996Z,100509.05
